Time;durP1;ratioP1;P1;durP2;ratioP2;P2;SDS_P1;SDS_P2;PMS_P1;PMS_P2;Temp;Humidity;BMP_temperature;BMP_pressure;BME280_temperature;BME280_humidity;BME280_pressure;Samples;Min_cycle;Max_cycle;Signal;HPM_P1;HPM_P2
2021/03/06 00:00:06;;;;;;;7.07;4.60;;;;;;;2.70;44.84;102417.84;349512;28;1186;-67
2021/03/06 00:00:19;;;;;;;7.55;4.35;;;;;;;2.54;44.47;102412.44;348728;28;23606;-67
2021/03/06 00:00:30;;;;;;;7.35;4.40;;;;;;;2.51;43.78;102411.53;348138;28;1132;-67
2021/03/06 00:00:42;;;;;;;8.38;4.47;;;;;;;2.59;44.52;102416.84;348031;28;1204;-67
2021/03/06 00:00:54;;;;;;;8.32;4.50;;;;;;;2.61;44.31;102417.72;348610;28;1028;-67
2021/03/06 00:01:07;;;;;;;8.00;4.45;;;;;;;2.67;44.94;102418.69;348622;28;24423;-67
2021/03/06 00:01:18;;;;;;;7.03;4.43;;;;;;;2.70;44.40;102413.50;349461;28;1092;-67
2021/03/06 00:01:29;;;;;;;6.18;4.32;;;;;;;2.74;44.40;102417.03;349525;28;1083;-68
2021/03/06 00:01:44;;;;;;;6.68;4.55;;;;;;;2.73;44.34;102417.88;348661;28;23962;-67
2021/03/06 00:01:55;;;;;;;6.88;4.72;;;;;;;2.71;44.43;102412.66;349467;28;1245;-67
2021/03/06 00:02:06;;;;;;;6.68;4.60;;;;;;;2.60;44.35;102419.47;349497;28;1081;-68
2021/03/06 00:02:18;;;;;;;6.57;4.55;;;;;;;2.56;44.43;102415.06;349498;28;1049;-67
2021/03/06 00:02:29;;;;;;;7.13;4.63;;;;;;;2.57;44.33;102411.63;350489;28;1092;-69
2021/03/06 00:02:41;;;;;;;7.05;4.70;;;;;;;2.65;45.06;102414.31;350850;28;1089;-67
2021/03/06 00:02:53;;;;;;;6.75;4.70;;;;;;;2.71;44.41;102419.63;349758;28;1112;-67
2021/03/06 00:03:04;;;;;;;6.68;4.60;;;;;;;2.70;44.68;102415.25;349631;28;1134;-67
2021/03/06 00:03:16;;;;;;;6.90;4.55;;;;;;;2.74;45.07;102422.25;349399;28;1163;-67
2021/03/06 00:03:27;;;;;;;7.13;4.22;;;;;;;2.74;44.51;102419.66;349417;28;1100;-67
2021/03/06 00:03:38;;;;;;;7.05;4.28;;;;;;;2.73;44.36;102417.88;349522;28;1072;-67
2021/03/06 00:03:49;;;;;;;6.28;4.35;;;;;;;2.69;44.44;102417.00;349533;28;1091;-67
2021/03/06 00:04:00;;;;;;;5.46;4.50;;;;;;;2.69;45.14;102418.69;349454;28;1096;-67
2021/03/06 00:04:12;;;;;;;6.48;4.50;;;;;;;2.61;44.04;102422.94;349492;28;1061;-67
2021/03/06 00:04:24;;;;;;;7.30;4.80;;;;;;;2.64;44.39;102421.25;349362;28;1204;-67
2021/03/06 00:04:36;;;;;;;8.05;5.03;;;;;;;2.66;44.37;102414.31;349465;28;1164;-67
2021/03/06 00:04:47;;;;;;;8.23;5.07;;;;;;;2.59;44.86;102417.72;349529;28;1073;-67
2021/03/06 00:04:58;;;;;;;8.30;4.72;;;;;;;2.55;44.46;102428.97;349546;28;1649;-67
2021/03/06 00:05:10;;;;;;;7.45;4.75;;;;;;;2.50;44.39;102421.09;349794;28;1810;-67
2021/03/06 00:05:23;;;;;;;8.23;5.00;;;;;;;2.42;44.37;102417.50;349469;28;1057;-67
2021/03/06 00:05:34;;;;;;;8.13;4.82;;;;;;;2.49;44.72;102421.94;349588;28;1153;-67
2021/03/06 00:05:46;;;;;;;7.68;4.80;;;;;;;2.52;45.07;102418.50;349650;28;1067;-67
2021/03/06 00:05:57;;;;;;;7.13;4.70;;;;;;;2.51;44.82;102417.63;349535;28;1164;-67
2021/03/06 00:06:10;;;;;;;6.47;4.88;;;;;;;2.53;44.74;102420.25;349586;28;1153;-67
2021/03/06 00:06:21;;;;;;;7.03;4.80;;;;;;;2.51;44.78;102419.34;349522;28;1072;-67
2021/03/06 00:06:32;;;;;;;7.15;4.65;;;;;;;2.54;44.37;102416.78;349642;28;1155;-66
2021/03/06 00:06:43;;;;;;;6.82;4.63;;;;;;;2.61;44.60;102416.03;349640;28;1076;-67
2021/03/06 00:06:54;;;;;;;5.50;4.38;;;;;;;2.64;45.12;102418.66;349617;28;1146;-67
2021/03/06 00:07:05;;;;;;;6.30;4.65;;;;;;;2.65;45.09;102419.53;349615;28;1236;-66
2021/03/06 00:07:17;;;;;;;7.63;4.70;;;;;;;2.65;44.93;102412.59;349640;28;1762;-67
2021/03/06 00:07:28;;;;;;;8.45;4.75;;;;;;;2.69;45.18;102413.47;350397;28;1648;-67
2021/03/06 00:07:40;;;;;;;8.02;4.78;;;;;;;2.69;44.69;102417.00;350991;28;1122;-67
2021/03/06 00:07:51;;;;;;;7.82;4.70;;;;;;;2.68;44.67;102414.38;351034;28;1037;-68
2021/03/06 00:08:03;;;;;;;7.45;4.53;;;;;;;2.65;44.79;102414.31;350929;28;1177;-66
2021/03/06 00:08:14;;;;;;;8.00;4.60;;;;;;;2.65;43.81;102420.41;350976;28;1092;-67
2021/03/06 00:08:25;;;;;;;7.82;4.72;;;;;;;2.68;45.11;102416.97;351026;28;1164;-67
2021/03/06 00:08:37;;;;;;;6.65;4.45;;;;;;;2.67;44.71;102417.81;351045;28;1060;-67
2021/03/06 00:08:48;;;;;;;5.70;4.30;;;;;;;2.64;44.84;102409.97;350959;28;1239;-67
2021/03/06 00:08:59;;;;;;;6.22;4.38;;;;;;;2.65;45.17;102419.53;350764;28;1146;-67
2021/03/06 00:09:11;;;;;;;7.70;4.60;;;;;;;2.62;44.75;102415.13;350844;28;1073;-67
2021/03/06 00:09:22;;;;;;;7.35;4.80;;;;;;;2.59;44.72;102414.25;350769;28;1129;-67
2021/03/06 00:09:33;;;;;;;6.00;4.60;;;;;;;2.61;44.57;102418.63;350860;28;1141;-67
2021/03/06 00:09:44;;;;;;;6.55;4.78;;;;;;;2.61;44.80;102412.50;349483;28;1211;-67
2021/03/06 00:09:56;;;;;;;7.43;5.03;;;;;;;2.60;44.88;102422.09;349510;28;1395;-67
2021/03/06 00:10:11;;;;;;;8.70;5.28;;;;;;;2.62;44.97;102417.75;349392;28;1148;-67
2021/03/06 00:10:23;;;;;;;7.40;5.00;;;;;;;2.66;44.86;102422.16;347888;28;48927;-67
2021/03/06 00:10:34;;;;;;;6.57;4.88;;;;;;;2.71;44.50;102419.63;349452;28;1187;-68
2021/03/06 00:10:45;;;;;;;7.12;4.90;;;;;;;2.65;44.83;102409.97;349431;28;1569;-67
2021/03/06 00:10:56;;;;;;;8.18;5.18;;;;;;;2.64;44.81;102417.78;350055;28;1189;-66
2021/03/06 00:11:07;;;;;;;8.32;5.28;;;;;;;2.65;44.83;102416.91;350865;28;1072;-67
2021/03/06 00:11:18;;;;;;;7.88;5.20;;;;;;;2.70;44.83;102415.25;350803;28;1215;-67
2021/03/06 00:11:29;;;;;;;6.88;4.75;;;;;;;2.65;44.76;102419.53;349494;28;2145;-67
2021/03/06 00:11:41;;;;;;;6.18;4.53;;;;;;;2.60;44.26;102421.22;350092;28;1117;-67
2021/03/06 00:11:52;;;;;;;5.75;4.65;;;;;;;2.55;44.92;102415.91;350809;28;1129;-67
2021/03/06 00:12:04;;;;;;;6.14;4.78;;;;;;;2.48;45.30;102414.97;350791;28;1209;-66
2021/03/06 00:12:15;;;;;;;6.70;5.05;;;;;;;2.52;44.64;102414.16;350918;28;1072;-67
2021/03/06 00:12:26;;;;;;;7.25;5.10;;;;;;;2.55;44.65;102413.31;349496;28;1235;-67
2021/03/06 00:12:42;;;;;;;7.28;5.07;;;;;;;2.63;44.81;102422.13;349388;28;1971;-67
2021/03/06 00:12:54;;;;;;;7.10;4.85;;;;;;;2.65;45.48;102412.59;347064;28;71923;-68
2021/03/06 00:13:05;;;;;;;6.63;4.95;;;;;;;2.67;45.37;102415.22;349422;28;1015;-68
2021/03/06 00:13:16;;;;;;;6.47;4.72;;;;;;;2.70;44.33;102410.03;349498;28;1188;-69
2021/03/06 00:13:27;;;;;;;5.93;4.68;;;;;;;2.73;45.24;102415.28;350315;28;1148;-67
2021/03/06 00:13:38;;;;;;;6.57;4.60;;;;;;;2.69;44.25;102409.16;350886;28;1021;-67
2021/03/06 00:13:49;;;;;;;7.78;4.80;;;;;;;2.68;44.66;102411.75;350801;28;1014;-67
2021/03/06 00:14:00;;;;;;;8.02;4.95;;;;;;;2.64;44.50;102418.66;350882;28;1378;-66
2021/03/06 00:14:12;;;;;;;7.22;4.95;;;;;;;2.63;44.39;102406.47;350897;28;1081;-67
2021/03/06 00:14:23;;;;;;;6.60;4.75;;;;;;;2.61;44.70;102412.50;350928;28;1243;-67
2021/03/06 00:14:34;;;;;;;5.55;4.50;;;;;;;2.63;44.98;102413.44;350752;28;1200;-66
2021/03/06 00:14:45;;;;;;;6.50;4.90;;;;;;;2.59;45.02;102414.25;350855;28;1081;-67
2021/03/06 00:14:57;;;;;;;6.50;5.03;;;;;;;2.62;44.62;102419.50;349443;28;1360;-67
2021/03/06 00:15:10;;;;;;;6.45;5.05;;;;;;;2.57;44.93;102408.13;349443;28;1129;-66
2021/03/06 00:15:26;;;;;;;5.97;4.70;;;;;;;2.53;44.65;102417.66;349424;28;1212;-67
2021/03/06 00:15:37;;;;;;;5.88;4.70;;;;;;;2.54;44.72;102415.06;346290;28;70961;-67
2021/03/06 00:15:48;;;;;;;6.56;4.90;;;;;;;2.56;44.75;102416.81;348870;28;1792;-67
2021/03/06 00:15:59;;;;;;;7.35;4.93;;;;;;;2.56;44.93;102416.81;348143;28;1165;-67
2021/03/06 00:16:11;;;;;;;6.88;4.88;;;;;;;2.54;44.45;102417.66;348132;28;1068;-67
2021/03/06 00:16:22;;;;;;;6.43;4.88;;;;;;;2.52;44.98;102423.72;348162;28;1160;-67
2021/03/06 00:16:34;;;;;;;6.68;5.10;;;;;;;2.41;44.16;102415.75;349038;28;1100;-67
2021/03/06 00:16:45;;;;;;;7.53;5.25;;;;;;;2.34;44.98;102413.91;349475;28;1117;-68
2021/03/06 00:16:57;;;;;;;7.85;5.45;;;;;;;2.41;45.01;102415.75;349567;28;1129;-67
2021/03/06 00:17:08;;;;;;;8.32;5.40;;;;;;;2.42;44.92;102416.59;349549;28;1958;-67
2021/03/06 00:17:19;;;;;;;7.57;5.22;;;;;;;2.50;45.40;102417.59;349562;28;1053;-67
2021/03/06 00:17:31;;;;;;;6.28;4.90;;;;;;;2.55;45.24;102413.31;349525;28;1037;-67
2021/03/06 00:17:42;;;;;;;5.97;5.00;;;;;;;2.57;45.28;102413.31;350851;28;1130;-67
2021/03/06 00:17:54;;;;;;;6.53;5.10;;;;;;;2.64;45.40;102415.19;350847;28;1090;-67
2021/03/06 00:18:05;;;;;;;6.90;5.03;;;;;;;2.66;45.30;102416.06;350869;28;1167;-67
2021/03/06 00:18:17;;;;;;;6.92;5.08;;;;;;;2.66;44.75;102411.72;350876;28;1140;-67
2021/03/06 00:18:28;;;;;;;6.80;5.20;;;;;;;2.62;44.42;102414.28;350769;28;1024;-67
2021/03/06 00:18:39;;;;;;;8.80;5.47;;;;;;;2.63;44.70;102418.63;350914;28;1715;-67
2021/03/06 00:18:50;;;;;;;9.05;5.47;;;;;;;2.68;44.48;102414.38;349470;28;1090;-67
2021/03/06 00:19:01;;;;;;;9.63;5.38;;;;;;;2.69;44.98;102417.00;349446;28;1212;-67
2021/03/06 00:19:12;;;;;;;7.28;5.03;;;;;;;2.72;45.39;102411.81;349442;28;1069;-67
2021/03/06 00:19:24;;;;;;;6.32;5.03;;;;;;;2.72;45.11;102411.81;349297;28;1116;-66
2021/03/06 00:19:36;;;;;;;6.70;5.20;;;;;;;2.72;45.11;102416.16;349494;28;1070;-67
2021/03/06 00:19:47;;;;;;;6.63;5.40;;;;;;;2.68;45.18;102423.06;349457;28;1168;-67
2021/03/06 00:19:59;;;;;;;7.25;5.35;;;;;;;2.65;44.56;102416.91;349395;28;1144;-68
2021/03/06 00:20:10;;;;;;;7.13;5.40;;;;;;;2.58;44.33;102418.56;349426;28;1120;-67
2021/03/06 00:20:21;;;;;;;7.25;5.40;;;;;;;2.56;44.64;102422.91;349335;28;1962;-67
2021/03/06 00:20:32;;;;;;;6.76;5.32;;;;;;;2.57;44.93;102418.53;348071;28;1065;-67
2021/03/06 00:20:44;;;;;;;6.55;5.20;;;;;;;2.56;45.31;102419.44;348298;28;1117;-67
2021/03/06 00:20:56;;;;;;;6.65;5.07;;;;;;;2.56;45.39;102420.28;349447;28;1200;-67
2021/03/06 00:21:24;;;;;;;8.45;5.30;;;;;;;2.54;45.11;102425.50;347024;28;70918;-67
2021/03/06 00:21:36;;;;;;;9.13;5.07;;;;;;;2.42;45.06;102425.31;349493;28;1243;-66
2021/03/06 00:21:47;;;;;;;7.80;4.82;;;;;;;2.38;44.96;102421.78;349421;28;1121;-67
2021/03/06 00:21:58;;;;;;;7.13;4.80;;;;;;;2.42;45.03;102427.03;349525;28;1081;-67
2021/03/06 00:22:09;;;;;;;7.18;4.98;;;;;;;2.44;45.03;102420.13;349400;28;1109;-67
2021/03/06 00:22:20;;;;;;;8.07;5.35;;;;;;;2.50;45.41;102421.09;349434;28;1796;-68
2021/03/06 00:22:32;;;;;;;8.48;5.68;;;;;;;2.51;45.24;102424.56;350587;28;1065;-67
2021/03/06 00:22:44;;;;;;;8.52;5.63;;;;;;;2.52;44.83;102421.09;350850;28;1053;-67
2021/03/06 00:22:55;;;;;;;8.00;5.30;;;;;;;2.55;45.27;102423.75;350796;28;1141;-67
2021/03/06 00:23:06;;;;;;;6.75;4.97;;;;;;;2.61;45.76;102422.94;349782;28;1150;-67
2021/03/06 00:23:18;;;;;;;6.53;5.10;;;;;;;2.62;45.43;102416.88;349571;28;1184;-67
2021/03/06 00:23:29;;;;;;;7.32;5.32;;;;;;;2.64;45.46;102423.00;349562;28;1069;-67
2021/03/06 00:23:40;;;;;;;8.02;5.32;;;;;;;2.68;45.01;102419.59;349607;28;1092;-67
2021/03/06 00:23:52;;;;;;;9.10;5.50;;;;;;;2.69;45.47;102417.00;349544;28;1113;-67
2021/03/06 00:24:03;;;;;;;9.05;5.43;;;;;;;2.68;45.23;102420.44;349460;28;1223;-67
2021/03/06 00:24:14;;;;;;;9.70;5.57;;;;;;;2.62;44.71;102419.50;349560;28;1098;-67
2021/03/06 00:24:25;;;;;;;8.90;5.57;;;;;;;2.60;44.54;102426.44;349588;28;967;-67
2021/03/06 00:24:37;;;;;;;7.47;5.28;;;;;;;2.60;44.83;102431.66;349570;28;1085;-67
2021/03/06 00:24:48;;;;;;;7.75;5.30;;;;;;;2.63;45.44;102429.06;349617;28;1080;-67
2021/03/06 00:24:59;;;;;;;8.73;5.63;;;;;;;2.63;45.26;102424.72;349462;28;1175;-67
2021/03/06 00:25:13;;;;;;;8.50;5.70;;;;;;;2.59;45.01;102428.16;349626;28;1089;-67
2021/03/06 00:25:27;;;;;;;8.52;5.60;;;;;;;2.57;45.54;102426.38;347144;28;71721;-67
2021/03/06 00:25:39;;;;;;;8.15;5.57;;;;;;;2.52;45.14;102418.50;349580;28;1172;-67
2021/03/06 00:25:50;;;;;;;7.45;5.47;;;;;;;2.29;44.52;102426.00;349506;28;1082;-67
2021/03/06 00:26:01;;;;;;;7.75;5.40;;;;;;;2.20;45.12;102421.53;349561;28;1155;-67
2021/03/06 00:26:12;;;;;;;7.55;5.38;;;;;;;2.25;45.54;102425.06;349479;28;1770;-67
2021/03/06 00:26:23;;;;;;;7.53;5.55;;;;;;;2.35;45.64;102426.97;350622;28;1619;-68
2021/03/06 00:26:34;;;;;;;7.53;5.60;;;;;;;2.38;45.28;102421.78;349590;28;1097;-67
2021/03/06 00:26:46;;;;;;;7.68;5.70;;;;;;;2.42;45.35;102427.03;349510;28;1072;-67
2021/03/06 00:26:57;;;;;;;7.88;5.68;;;;;;;2.39;45.12;102422.69;349536;28;1061;-67
2021/03/06 00:27:08;;;;;;;8.13;5.80;;;;;;;2.44;45.38;102425.34;349571;28;1157;-67
2021/03/06 00:27:19;;;;;;;8.05;5.47;;;;;;;2.40;45.37;102424.41;349545;28;1193;-67
2021/03/06 00:27:30;;;;;;;7.85;5.68;;;;;;;2.43;45.84;102429.69;349558;28;1175;-67
2021/03/06 00:27:42;;;;;;;7.32;5.40;;;;;;;2.46;45.61;102423.63;349510;28;1216;-67
2021/03/06 00:27:53;;;;;;;6.57;5.32;;;;;;;2.38;45.01;102426.13;349511;28;1149;-67
2021/03/06 00:28:04;;;;;;;6.75;5.38;;;;;;;2.40;45.26;102420.94;349423;28;1133;-67
2021/03/06 00:28:15;;;;;;;6.22;5.45;;;;;;;2.44;45.83;102433.16;349484;28;1187;-67
2021/03/06 00:28:26;;;;;;;6.60;5.50;;;;;;;2.48;45.52;102422.78;349509;28;1190;-67
2021/03/06 00:28:38;;;;;;;6.43;5.38;;;;;;;2.38;45.42;102421.78;349443;28;1143;-67
2021/03/06 00:28:49;;;;;;;6.75;5.45;;;;;;;2.35;45.18;102426.09;349393;28;1351;-67
2021/03/06 00:29:00;;;;;;;6.60;5.40;;;;;;;2.39;45.42;102430.50;349372;28;2085;-67
2021/03/06 00:29:11;;;;;;;7.43;5.50;;;;;;;2.43;45.40;102420.97;349457;28;1117;-67
2021/03/06 00:29:22;;;;;;;7.50;5.35;;;;;;;2.44;45.40;102423.59;349389;28;1427;-67
2021/03/06 00:29:34;;;;;;;7.53;5.30;;;;;;;2.51;45.44;102421.94;349432;28;1182;-67
2021/03/06 00:29:45;;;;;;;7.53;5.30;;;;;;;2.48;45.59;102422.78;350829;28;1060;-67
2021/03/06 00:29:56;;;;;;;7.78;5.60;;;;;;;2.45;45.70;102425.34;350908;28;1069;-67
2021/03/06 00:30:12;;;;;;;9.07;5.60;;;;;;;2.48;45.65;102421.91;350867;28;1061;-67
2021/03/06 00:30:23;;;;;;;9.50;5.52;;;;;;;2.53;45.66;102426.34;347834;28;48213;-67
2021/03/06 00:30:35;;;;;;;8.43;5.68;;;;;;;2.59;45.88;102422.94;349393;28;1175;-67
2021/03/06 00:30:46;;;;;;;7.93;5.85;;;;;;;2.60;45.52;102424.69;349450;28;1104;-67
2021/03/06 00:30:58;;;;;;;7.30;5.68;;;;;;;2.62;45.77;102424.72;349458;28;1077;-67
2021/03/06 00:31:09;;;;;;;7.60;5.53;;;;;;;2.61;45.82;102423.84;349452;28;1147;-67
2021/03/06 00:31:20;;;;;;;7.72;5.60;;;;;;;2.62;45.14;102427.31;349444;28;1143;-67
2021/03/06 00:31:31;;;;;;;7.38;5.70;;;;;;;2.63;45.34;102426.47;349327;28;1044;-67
2021/03/06 00:31:42;;;;;;;8.18;5.53;;;;;;;2.58;45.28;102423.78;348747;28;1060;-67
2021/03/06 00:31:54;;;;;;;8.10;5.50;;;;;;;2.56;45.18;102427.25;348079;28;1078;-67
2021/03/06 00:32:06;;;;;;;9.38;5.60;;;;;;;2.57;44.88;102431.59;348983;28;1092;-67
2021/03/06 00:32:18;;;;;;;8.68;5.50;;;;;;;2.59;45.16;102424.69;349479;28;1089;-67
2021/03/06 00:32:29;;;;;;;7.25;5.43;;;;;;;2.55;44.89;102426.34;349427;28;1203;-67
2021/03/06 00:32:41;;;;;;;7.18;5.60;;;;;;;2.50;45.19;102428.91;349430;28;1110;-67
2021/03/06 00:32:53;;;;;;;7.07;5.57;;;;;;;2.50;44.83;102431.53;349472;28;1073;-67
2021/03/06 00:33:05;;;;;;;8.07;5.72;;;;;;;2.51;44.92;102433.28;349460;28;1156;-67
2021/03/06 00:33:16;;;;;;;8.45;5.70;;;;;;;2.50;45.00;102423.69;349425;28;1013;-67
2021/03/06 00:33:28;;;;;;;10.13;5.70;;;;;;;2.50;45.17;102426.31;349481;28;1165;-67
2021/03/06 00:33:39;;;;;;;9.84;5.70;;;;;;;2.40;44.87;102423.53;349603;28;1172;-67
2021/03/06 00:33:51;;;;;;;9.57;5.65;;;;;;;2.40;44.91;102428.75;349611;28;1151;-67
2021/03/06 00:34:04;;;;;;;7.68;5.60;;;;;;;2.34;45.08;102430.41;349605;28;1085;-67
2021/03/06 00:34:15;;;;;;;7.72;5.78;;;;;;;2.33;45.68;102425.19;349439;28;1292;-66
2021/03/06 00:34:26;;;;;;;6.80;5.75;;;;;;;2.40;45.50;102426.16;349554;28;1187;-67
2021/03/06 00:34:37;;;;;;;7.16;5.72;;;;;;;2.36;45.20;102422.63;349606;28;1080;-67
2021/03/06 00:34:49;;;;;;;8.40;5.75;;;;;;;2.30;45.42;102428.63;349603;28;1084;-66
2021/03/06 00:35:00;;;;;;;7.97;5.75;;;;;;;2.29;45.52;102429.47;349477;28;1074;-67
2021/03/06 00:35:13;;;;;;;7.43;5.80;;;;;;;2.26;44.88;102420.75;349388;28;2788;-67
2021/03/06 00:35:24;;;;;;;7.82;5.82;;;;;;;2.15;45.40;102433.63;349551;28;1133;-67
2021/03/06 00:35:36;;;;;;;8.10;5.95;;;;;;;2.06;45.65;102418.72;349600;28;1068;-67
2021/03/06 00:35:47;;;;;;;7.85;5.68;;;;;;;2.10;45.75;102430.06;349587;28;1211;-67
2021/03/06 00:35:58;;;;;;;7.63;5.63;;;;;;;2.10;45.67;102436.16;349350;28;1585;-67
2021/03/06 00:36:09;;;;;;;7.60;5.70;;;;;;;2.17;45.72;102432.78;349443;28;1001;-67
2021/03/06 00:36:21;;;;;;;7.80;5.97;;;;;;;2.17;45.83;102424.06;349397;28;1081;-67
2021/03/06 00:36:36;;;;;;;8.80;5.70;;;;;;;2.18;45.55;102431.94;347700;28;50526;-67
2021/03/06 00:36:47;;;;;;;8.88;5.50;;;;;;;2.18;45.93;102434.56;349452;28;1157;-67
2021/03/06 00:36:59;;;;;;;8.00;5.57;;;;;;;2.26;45.92;102436.41;349606;28;1645;-65
2021/03/06 00:37:10;;;;;;;7.88;5.97;;;;;;;2.26;45.75;102428.56;350428;28;2127;-66
2021/03/06 00:37:21;;;;;;;7.43;5.95;;;;;;;2.34;45.87;102434.78;350844;28;1077;-67
2021/03/06 00:37:32;;;;;;;7.00;5.65;;;;;;;2.39;46.02;102435.72;350817;28;1121;-67
2021/03/06 00:37:43;;;;;;;6.72;5.40;;;;;;;2.42;45.89;102432.25;350860;28;1068;-67
2021/03/06 00:37:54;;;;;;;6.72;5.50;;;;;;;2.46;45.78;102434.03;351463;28;1147;-66
2021/03/06 00:38:06;;;;;;;6.50;5.60;;;;;;;2.45;45.45;102435.78;352257;28;1114;-67
2021/03/06 00:38:17;;;;;;;6.40;5.63;;;;;;;2.48;45.84;102435.81;352226;28;1113;-66
2021/03/06 00:38:28;;;;;;;6.72;5.72;;;;;;;2.46;45.27;102429.72;352218;28;1068;-67
2021/03/06 00:38:39;;;;;;;7.97;5.93;;;;;;;2.39;45.44;102430.50;352251;28;1203;-67
2021/03/06 00:38:50;;;;;;;8.68;5.85;;;;;;;2.36;45.26;102433.94;352175;28;1165;-67
2021/03/06 00:39:02;;;;;;;8.10;5.63;;;;;;;2.41;45.52;102430.53;349482;28;1134;-67
2021/03/06 00:39:13;;;;;;;6.95;5.53;;;;;;;2.40;45.85;102429.63;349584;28;1069;-67
2021/03/06 00:39:24;;;;;;;7.90;5.40;;;;;;;2.42;45.39;102427.94;349555;28;1117;-67
2021/03/06 00:39:36;;;;;;;8.57;5.53;;;;;;;2.41;45.73;102431.38;349471;28;1109;-67
2021/03/06 00:39:47;;;;;;;8.30;5.80;;;;;;;2.42;45.38;102433.16;349505;28;1240;-66
2021/03/06 00:39:59;;;;;;;7.50;5.90;;;;;;;2.46;45.69;102429.72;349925;28;1730;-67
2021/03/06 00:40:11;;;;;;;8.48;6.07;;;;;;;2.52;45.33;102434.16;350978;28;1064;-67
2021/03/06 00:40:23;;;;;;;8.68;6.05;;;;;;;2.46;45.74;102429.72;350938;28;1121;-66
2021/03/06 00:40:34;;;;;;;7.85;5.93;;;;;;;2.50;45.34;102428.91;350928;28;1137;-67
2021/03/06 00:40:45;;;;;;;7.90;5.57;;;;;;;2.49;45.37;102432.38;350906;28;1239;-67
2021/03/06 00:40:56;;;;;;;8.50;5.38;;;;;;;2.46;45.46;102437.56;350898;28;1236;-67
2021/03/06 00:41:07;;;;;;;9.75;5.43;;;;;;;2.50;45.41;102431.53;350861;28;1120;-67
2021/03/06 00:41:18;;;;;;;9.90;5.57;;;;;;;2.52;45.25;102435.00;350846;28;1094;-67
2021/03/06 00:41:29;;;;;;;9.13;5.82;;;;;;;2.54;45.73;102432.41;350751;28;1082;-67
2021/03/06 00:41:41;;;;;;;8.05;6.00;;;;;;;2.53;45.46;102430.69;350763;28;1130;-67
2021/03/06 00:41:53;;;;;;;6.97;5.90;;;;;;;2.55;45.55;102434.19;349521;28;1160;-67
2021/03/06 00:42:04;;;;;;;7.40;5.90;;;;;;;2.59;45.93;102435.97;349476;28;1261;-67
2021/03/06 00:42:15;;;;;;;8.00;5.85;;;;;;;2.58;45.05;102435.97;349421;28;1150;-67
2021/03/06 00:42:26;;;;;;;9.38;5.95;;;;;;;2.59;45.47;102430.75;349448;28;1153;-67
2021/03/06 00:42:38;;;;;;;9.13;5.90;;;;;;;2.61;45.56;102434.28;349347;28;1133;-67
2021/03/06 00:42:49;;;;;;;7.84;5.64;;;;;;;2.58;45.45;102431.59;349387;28;1136;-67
2021/03/06 00:43:00;;;;;;;7.65;5.80;;;;;;;2.47;44.96;102425.38;349455;28;1089;-68
2021/03/06 00:43:12;;;;;;;7.95;5.97;;;;;;;2.41;45.55;102422.69;349403;28;1069;-67
2021/03/06 00:43:23;;;;;;;8.48;5.90;;;;;;;2.41;45.71;102428.78;349464;28;1106;-67
2021/03/06 00:43:34;;;;;;;7.82;5.90;;;;;;;2.40;45.31;102429.63;349593;28;1069;-67
2021/03/06 00:43:45;;;;;;;7.93;5.90;;;;;;;2.43;45.70;102424.47;350996;28;1143;-67
2021/03/06 00:43:57;;;;;;;8.27;6.10;;;;;;;2.46;45.63;102431.44;352285;28;1057;-67
2021/03/06 00:44:08;;;;;;;7.90;6.10;;;;;;;2.39;45.24;102420.06;352261;28;1164;-67
2021/03/06 00:44:19;;;;;;;8.68;6.13;;;;;;;2.41;45.61;102430.53;352241;28;1122;-68
2021/03/06 00:44:30;;;;;;;9.02;5.80;;;;;;;2.45;45.65;102422.75;352044;28;993;-67
2021/03/06 00:44:42;;;;;;;9.18;5.80;;;;;;;2.49;45.56;102423.69;350791;28;1102;-67
2021/03/06 00:44:53;;;;;;;8.42;5.60;;;;;;;2.53;46.11;102426.34;350860;28;1155;-67
2021/03/06 00:45:05;;;;;;;7.70;5.82;;;;;;;2.52;45.69;102423.72;350962;28;1147;-67
2021/03/06 00:45:17;;;;;;;7.60;5.93;;;;;;;2.52;45.47;102429.78;350814;28;1132;-66
2021/03/06 00:45:28;;;;;;;7.18;5.90;;;;;;;2.54;46.33;102428.09;350768;28;1080;-67
2021/03/06 00:45:39;;;;;;;8.75;5.57;;;;;;;2.53;45.27;102428.94;350864;28;954;-67
2021/03/06 00:45:50;;;;;;;8.88;5.55;;;;;;;2.51;45.41;102425.47;350838;28;1229;-67
2021/03/06 00:46:02;;;;;;;9.40;5.50;;;;;;;2.51;45.59;102428.06;350863;28;1068;-67
2021/03/06 00:46:13;;;;;;;8.25;5.80;;;;;;;2.54;45.62;102427.19;350828;28;1065;-67
2021/03/06 00:46:25;;;;;;;8.27;5.90;;;;;;;2.45;45.03;102427.09;350825;28;1066;-67
2021/03/06 00:46:37;;;;;;;8.48;5.97;;;;;;;2.39;45.51;102422.69;350794;28;1084;-67
2021/03/06 00:46:48;;;;;;;8.75;5.85;;;;;;;2.41;45.52;102427.91;350838;28;1158;-67
2021/03/06 00:46:59;;;;;;;8.50;5.70;;;;;;;2.35;45.12;102431.31;349473;28;1025;-67
2021/03/06 00:47:11;;;;;;;9.55;5.80;;;;;;;2.34;45.50;102429.56;349824;28;1118;-67
2021/03/06 00:47:22;;;;;;;9.70;6.10;;;;;;;2.37;45.58;102421.78;350826;28;1093;-66
2021/03/06 00:47:33;;;;;;;9.15;6.05;;;;;;;2.40;45.84;102423.53;350452;28;1736;-67
2021/03/06 00:47:45;;;;;;;7.30;5.80;;;;;;;2.38;45.66;102431.34;350744;28;1755;-67
2021/03/06 00:47:56;;;;;;;8.23;5.68;;;;;;;2.41;45.72;102431.38;350819;28;1072;-67
2021/03/06 00:48:07;;;;;;;7.88;5.78;;;;;;;2.37;45.59;102422.63;350871;28;1255;-67
2021/03/06 00:48:18;;;;;;;7.90;5.72;;;;;;;2.32;45.22;102423.44;349392;28;1062;-67
2021/03/06 00:48:29;;;;;;;7.85;5.97;;;;;;;2.33;45.42;102422.59;349381;28;1094;-67
2021/03/06 00:48:41;;;;;;;8.13;6.00;;;;;;;2.32;45.52;102420.81;349357;28;1106;-67
2021/03/06 00:48:54;;;;;;;8.36;5.98;;;;;;;2.35;45.66;102421.75;349650;28;1148;-67
2021/03/06 00:49:05;;;;;;;9.00;5.72;;;;;;;2.39;45.65;102422.69;350814;28;1157;-67
2021/03/06 00:49:19;;;;;;;8.75;5.75;;;;;;;2.41;45.74;102425.31;350740;28;1088;-67
2021/03/06 00:49:30;;;;;;;8.70;5.70;;;;;;;2.44;45.67;102423.59;350761;28;1183;-66
2021/03/06 00:49:41;;;;;;;8.13;5.88;;;;;;;2.43;45.38;102423.59;350766;28;1109;-67
2021/03/06 00:49:52;;;;;;;7.72;5.82;;;;;;;2.48;45.95;102420.19;350861;28;1069;-67
2021/03/06 00:50:21;;;;;;;7.05;5.95;;;;;;;2.53;46.14;102426.34;350762;28;2122;-67
2021/03/06 00:50:35;;;;;;;8.28;6.16;;;;;;;2.53;45.82;102425.47;347251;28;93399;-67
2021/03/06 00:50:46;;;;;;;8.46;6.20;;;;;;;2.53;45.54;102423.72;349460;28;1284;-67
2021/03/06 00:50:57;;;;;;;7.60;5.95;;;;;;;2.54;45.56;102428.09;349594;28;1142;-67
2021/03/06 00:51:09;;;;;;;7.85;5.75;;;;;;;2.52;46.18;102427.19;349477;28;1126;-67
2021/03/06 00:51:21;;;;;;;7.88;6.03;;;;;;;2.48;45.03;102424.53;349504;28;1077;-67
2021/03/06 00:51:46;;;;;;;7.68;6.40;;;;;;;2.46;45.66;102424.50;346985;28;71044;-67
2021/03/06 00:51:58;;;;;;;7.72;6.20;;;;;;;2.48;45.57;102424.53;349362;28;1153;-67
2021/03/06 00:52:09;;;;;;;7.90;6.10;;;;;;;2.49;45.69;102427.16;349417;28;1052;-67
2021/03/06 00:52:20;;;;;;;8.48;6.10;;;;;;;2.49;45.68;102432.38;349481;28;1181;-67
2021/03/06 00:52:31;;;;;;;9.25;6.18;;;;;;;2.50;45.60;102430.63;349459;28;1068;-67
2021/03/06 00:52:42;;;;;;;9.70;6.28;;;;;;;2.41;45.60;102425.31;349383;28;1125;-67
2021/03/06 00:52:53;;;;;;;9.27;6.30;;;;;;;2.34;45.15;102427.81;349377;28;1069;-67
2021/03/06 00:53:05;;;;;;;8.32;6.03;;;;;;;2.31;45.55;102427.78;348053;28;1155;-67
2021/03/06 00:53:16;;;;;;;7.38;5.85;;;;;;;2.23;45.81;102426.78;348618;28;1915;-67
2021/03/06 00:53:27;;;;;;;7.88;5.78;;;;;;;2.17;45.94;102424.97;349453;28;1129;-66
2021/03/06 00:53:38;;;;;;;8.95;5.68;;;;;;;2.25;46.86;102438.09;349386;28;1116;-67
2021/03/06 00:53:50;;;;;;;8.35;5.70;;;;;;;2.30;45.85;102427.75;350693;28;1117;-67
2021/03/06 00:54:01;;;;;;;7.60;5.90;;;;;;;2.31;45.90;102433.00;350785;28;1171;-67
2021/03/06 00:54:12;;;;;;;7.40;6.10;;;;;;;2.37;45.94;102425.25;350847;28;1208;-67
2021/03/06 00:54:24;;;;;;;8.15;6.00;;;;;;;2.42;46.27;102427.03;350868;28;1306;-67
2021/03/06 00:54:35;;;;;;;8.52;5.85;;;;;;;2.42;46.00;102427.94;349414;28;1152;-67
2021/03/06 00:54:46;;;;;;;8.50;5.88;;;;;;;2.38;45.73;102433.97;347989;28;1014;-67
2021/03/06 00:54:57;;;;;;;8.82;5.97;;;;;;;2.39;45.55;102422.69;348088;28;1068;-67
2021/03/06 00:55:08;;;;;;;9.15;6.18;;;;;;;2.38;45.85;102431.34;349440;28;1093;-67
2021/03/06 00:55:20;;;;;;;8.40;6.18;;;;;;;2.41;45.54;102426.16;349469;28;1084;-67
2021/03/06 00:55:31;;;;;;;8.45;6.05;;;;;;;2.42;46.22;102432.25;349461;28;1392;-67
2021/03/06 00:55:42;;;;;;;7.68;6.00;;;;;;;2.44;45.83;102431.41;349249;28;1076;-67
2021/03/06 00:55:53;;;;;;;7.78;6.05;;;;;;;2.44;45.82;102425.34;348000;28;1065;-67
2021/03/06 00:56:05;;;;;;;8.25;6.20;;;;;;;2.45;46.08;102429.72;348048;28;1122;-67
2021/03/06 00:56:16;;;;;;;8.55;6.30;;;;;;;2.41;45.92;102433.13;348031;28;1301;-67